sensor_id;sensor_type;location;lat;lon;timestamp;P1;durP1;ratioP1;P2;durP2;ratioP2
18596;SDS011;9428;50.950;6.912;2024-02-14T00:01:32;4.13;;;1.30;;
18596;SDS011;9428;50.950;6.912;2024-02-14T00:04:22;5.03;;;1.40;;
18596;SDS011;9428;50.950;6.912;2024-02-14T00:07:11;1.90;;;1.10;;
18596;SDS011;9428;50.950;6.912;2024-02-14T00:09:58;4.43;;;1.30;;
18596;SDS011;9428;50.950;6.912;2024-02-14T00:12:45;2.67;;;1.25;;
18596;SDS011;9428;50.950;6.912;2024-02-14T00:15:34;4.80;;;1.13;;
18596;SDS011;9428;50.950;6.912;2024-02-14T00:18:21;1.23;;;1.00;;
18596;SDS011;9428;50.950;6.912;2024-02-14T00:21:09;3.25;;;1.15;;
18596;SDS011;9428;50.950;6.912;2024-02-14T00:23:57;2.15;;;1.33;;
18596;SDS011;9428;50.950;6.912;2024-02-14T00:26:45;2.80;;;1.13;;
18596;SDS011;9428;50.950;6.912;2024-02-14T00:29:32;5.05;;;1.08;;
18596;SDS011;9428;50.950;6.912;2024-02-14T00:32:20;3.53;;;1.40;;
18596;SDS011;9428;50.950;6.912;2024-02-14T00:35:07;1.52;;;0.93;;
18596;SDS011;9428;50.950;6.912;2024-02-14T00:37:55;2.35;;;1.50;;
18596;SDS011;9428;50.950;6.912;2024-02-14T00:40:44;1.98;;;1.27;;
18596;SDS011;9428;50.950;6.912;2024-02-14T00:43:31;4.75;;;1.45;;
18596;SDS011;9428;50.950;6.912;2024-02-14T00:46:18;2.53;;;1.20;;
18596;SDS011;9428;50.950;6.912;2024-02-14T00:49:06;1.85;;;0.90;;
18596;SDS011;9428;50.950;6.912;2024-02-14T00:51:53;2.03;;;1.08;;
18596;SDS011;9428;50.950;6.912;2024-02-14T00:54:40;2.83;;;1.10;;
18596;SDS011;9428;50.950;6.912;2024-02-14T00:57:29;3.67;;;1.10;;
18596;SDS011;9428;50.950;6.912;2024-02-14T01:00:16;1.02;;;0.85;;
18596;SDS011;9428;50.950;6.912;2024-02-14T01:03:04;1.02;;;0.93;;
18596;SDS011;9428;50.950;6.912;2024-02-14T01:05:53;2.13;;;1.02;;
18596;SDS011;9428;50.950;6.912;2024-02-14T01:08:40;2.63;;;1.10;;
18596;SDS011;9428;50.950;6.912;2024-02-14T01:11:28;2.28;;;1.10;;
18596;SDS011;9428;50.950;6.912;2024-02-14T01:14:17;1.98;;;1.00;;
18596;SDS011;9428;50.950;6.912;2024-02-14T01:17:04;1.77;;;1.00;;
18596;SDS011;9428;50.950;6.912;2024-02-14T01:19:52;1.67;;;1.10;;
18596;SDS011;9428;50.950;6.912;2024-02-14T01:22:39;1.67;;;1.33;;
18596;SDS011;9428;50.950;6.912;2024-02-14T01:25:26;1.60;;;0.98;;
18596;SDS011;9428;50.950;6.912;2024-02-14T01:28:13;1.38;;;0.85;;
18596;SDS011;9428;50.950;6.912;2024-02-14T01:31:02;1.85;;;0.90;;
18596;SDS011;9428;50.950;6.912;2024-02-14T01:33:50;1.40;;;0.85;;
18596;SDS011;9428;50.950;6.912;2024-02-14T01:36:40;1.70;;;1.00;;
18596;SDS011;9428;50.950;6.912;2024-02-14T01:39:27;3.28;;;1.25;;
18596;SDS011;9428;50.950;6.912;2024-02-14T01:42:15;2.22;;;1.10;;
18596;SDS011;9428;50.950;6.912;2024-02-14T01:45:02;1.60;;;0.75;;
18596;SDS011;9428;50.950;6.912;2024-02-14T01:47:51;3.53;;;1.30;;
18596;SDS011;9428;50.950;6.912;2024-02-14T01:50:39;1.80;;;1.08;;
18596;SDS011;9428;50.950;6.912;2024-02-14T01:53:26;2.33;;;1.05;;
18596;SDS011;9428;50.950;6.912;2024-02-14T01:56:16;1.23;;;0.88;;
18596;SDS011;9428;50.950;6.912;2024-02-14T01:59:03;1.70;;;1.00;;
18596;SDS011;9428;50.950;6.912;2024-02-14T02:01:52;1.70;;;0.90;;
18596;SDS011;9428;50.950;6.912;2024-02-14T02:04:41;1.00;;;0.90;;
18596;SDS011;9428;50.950;6.912;2024-02-14T02:07:28;3.50;;;0.90;;
18596;SDS011;9428;50.950;6.912;2024-02-14T02:10:15;1.73;;;1.00;;
18596;SDS011;9428;50.950;6.912;2024-02-14T02:13:03;0.95;;;0.77;;
18596;SDS011;9428;50.950;6.912;2024-02-14T02:15:50;2.70;;;1.35;;
18596;SDS011;9428;50.950;6.912;2024-02-14T02:18:38;1.52;;;1.10;;
18596;SDS011;9428;50.950;6.912;2024-02-14T02:21:27;2.70;;;1.20;;
18596;SDS011;9428;50.950;6.912;2024-02-14T02:24:16;1.75;;;0.75;;
18596;SDS011;9428;50.950;6.912;2024-02-14T02:27:04;1.40;;;1.00;;
18596;SDS011;9428;50.950;6.912;2024-02-14T02:29:51;1.42;;;0.77;;
18596;SDS011;9428;50.950;6.912;2024-02-14T02:32:39;1.60;;;0.95;;
18596;SDS011;9428;50.950;6.912;2024-02-14T02:35:26;2.72;;;0.75;;
18596;SDS011;9428;50.950;6.912;2024-02-14T02:38:13;2.42;;;0.80;;
18596;SDS011;9428;50.950;6.912;2024-02-14T02:41:02;2.25;;;1.10;;
18596;SDS011;9428;50.950;6.912;2024-02-14T02:43:51;1.50;;;1.10;;
18596;SDS011;9428;50.950;6.912;2024-02-14T02:46:39;1.50;;;0.95;;
18596;SDS011;9428;50.950;6.912;2024-02-14T02:49:27;4.30;;;1.02;;
18596;SDS011;9428;50.950;6.912;2024-02-14T02:52:14;2.22;;;1.15;;
18596;SDS011;9428;50.950;6.912;2024-02-14T02:55:02;3.30;;;1.00;;
18596;SDS011;9428;50.950;6.912;2024-02-14T02:57:51;4.80;;;1.42;;
18596;SDS011;9428;50.950;6.912;2024-02-14T03:00:39;2.13;;;0.90;;
18596;SDS011;9428;50.950;6.912;2024-02-14T03:03:26;3.95;;;1.00;;
18596;SDS011;9428;50.950;6.912;2024-02-14T03:06:13;3.38;;;0.90;;
18596;SDS011;9428;50.950;6.912;2024-02-14T03:09:01;3.70;;;1.08;;
18596;SDS011;9428;50.950;6.912;2024-02-14T03:11:48;2.03;;;0.95;;
18596;SDS011;9428;50.950;6.912;2024-02-14T03:14:37;3.92;;;0.90;;
18596;SDS011;9428;50.950;6.912;2024-02-14T03:17:27;1.10;;;1.00;;
18596;SDS011;9428;50.950;6.912;2024-02-14T03:20:14;4.70;;;1.10;;
18596;SDS011;9428;50.950;6.912;2024-02-14T03:23:02;1.38;;;0.90;;
18596;SDS011;9428;50.950;6.912;2024-02-14T03:25:50;2.83;;;1.20;;
18596;SDS011;9428;50.950;6.912;2024-02-14T03:28:37;1.27;;;0.90;;
18596;SDS011;9428;50.950;6.912;2024-02-14T03:31:26;3.38;;;1.00;;
18596;SDS011;9428;50.950;6.912;2024-02-14T03:34:13;1.42;;;0.90;;
18596;SDS011;9428;50.950;6.912;2024-02-14T03:37:01;0.73;;;0.60;;
18596;SDS011;9428;50.950;6.912;2024-02-14T03:39:49;1.65;;;0.85;;
18596;SDS011;9428;50.950;6.912;2024-02-14T03:42:36;3.53;;;0.90;;
18596;SDS011;9428;50.950;6.912;2024-02-14T03:45:25;1.05;;;0.70;;
18596;SDS011;9428;50.950;6.912;2024-02-14T03:48:16;2.22;;;0.75;;
18596;SDS011;9428;50.950;6.912;2024-02-14T03:51:04;3.08;;;0.77;;
18596;SDS011;9428;50.950;6.912;2024-02-14T03:53:51;1.38;;;0.82;;
18596;SDS011;9428;50.950;6.912;2024-02-14T03:56:39;1.30;;;0.98;;
18596;SDS011;9428;50.950;6.912;2024-02-14T03:59:26;1.63;;;1.10;;
18596;SDS011;9428;50.950;6.912;2024-02-14T04:02:14;1.90;;;0.82;;
18596;SDS011;9428;50.950;6.912;2024-02-14T04:05:03;1.55;;;1.08;;
18596;SDS011;9428;50.950;6.912;2024-02-14T04:07:52;2.50;;;1.00;;
18596;SDS011;9428;50.950;6.912;2024-02-14T04:10:42;1.55;;;0.93;;
18596;SDS011;9428;50.950;6.912;2024-02-14T04:13:30;2.38;;;1.20;;
18596;SDS011;9428;50.950;6.912;2024-02-14T04:16:18;1.23;;;0.85;;
18596;SDS011;9428;50.950;6.912;2024-02-14T04:19:06;1.65;;;1.10;;
18596;SDS011;9428;50.950;6.912;2024-02-14T04:21:57;1.08;;;0.95;;
18596;SDS011;9428;50.950;6.912;2024-02-14T04:24:44;0.95;;;0.80;;
18596;SDS011;9428;50.950;6.912;2024-02-14T04:27:32;0.98;;;0.77;;
18596;SDS011;9428;50.950;6.912;2024-02-14T04:30:22;2.67;;;1.10;;
18596;SDS011;9428;50.950;6.912;2024-02-14T04:33:09;2.13;;;0.80;;
18596;SDS011;9428;50.950;6.912;2024-02-14T04:35:57;1.67;;;1.30;;
18596;SDS011;9428;50.950;6.912;2024-02-14T04:38:46;4.07;;;1.15;;
18596;SDS011;9428;50.950;6.912;2024-02-14T04:41:34;2.10;;;1.10;;
18596;SDS011;9428;50.950;6.912;2024-02-14T04:44:22;1.75;;;0.98;;
18596;SDS011;9428;50.950;6.912;2024-02-14T04:47:10;2.35;;;0.95;;
18596;SDS011;9428;50.950;6.912;2024-02-14T04:49:58;1.52;;;0.82;;
18596;SDS011;9428;50.950;6.912;2024-02-14T04:52:46;1.63;;;1.00;;
18596;SDS011;9428;50.950;6.912;2024-02-14T04:55:35;1.95;;;1.17;;
18596;SDS011;9428;50.950;6.912;2024-02-14T04:58:22;2.72;;;0.93;;
18596;SDS011;9428;50.950;6.912;2024-02-14T05:01:11;3.67;;;1.17;;
18596;SDS011;9428;50.950;6.912;2024-02-14T05:04:00;2.38;;;1.13;;
18596;SDS011;9428;50.950;6.912;2024-02-14T05:06:48;1.73;;;0.95;;
18596;SDS011;9428;50.950;6.912;2024-02-14T05:09:35;2.45;;;1.08;;
18596;SDS011;9428;50.950;6.912;2024-02-14T05:12:24;2.60;;;1.20;;
18596;SDS011;9428;50.950;6.912;2024-02-14T05:15:12;1.90;;;1.13;;
18596;SDS011;9428;50.950;6.912;2024-02-14T05:17:59;1.83;;;1.25;;
18596;SDS011;9428;50.950;6.912;2024-02-14T05:20:47;3.72;;;1.52;;
18596;SDS011;9428;50.950;6.912;2024-02-14T05:23:35;2.85;;;1.20;;
18596;SDS011;9428;50.950;6.912;2024-02-14T05:26:22;1.02;;;0.80;;
18596;SDS011;9428;50.950;6.912;2024-02-14T05:29:13;0.85;;;0.85;;
18596;SDS011;9428;50.950;6.912;2024-02-14T05:32:04;1.05;;;0.90;;
18596;SDS011;9428;50.950;6.912;2024-02-14T05:34:54;4.60;;;1.20;;
18596;SDS011;9428;50.950;6.912;2024-02-14T05:37:42;1.10;;;0.88;;
18596;SDS011;9428;50.950;6.912;2024-02-14T05:40:29;4.18;;;1.20;;
18596;SDS011;9428;50.950;6.912;2024-02-14T05:43:16;2.80;;;1.52;;
18596;SDS011;9428;50.950;6.912;2024-02-14T05:46:05;4.00;;;1.80;;
18596;SDS011;9428;50.950;6.912;2024-02-14T05:48:54;1.13;;;1.02;;
18596;SDS011;9428;50.950;6.912;2024-02-14T05:51:42;2.85;;;1.00;;
18596;SDS011;9428;50.950;6.912;2024-02-14T05:54:30;2.28;;;1.42;;
18596;SDS011;9428;50.950;6.912;2024-02-14T05:57:17;0.93;;;0.82;;
18596;SDS011;9428;50.950;6.912;2024-02-14T06:00:05;2.05;;;1.05;;
18596;SDS011;9428;50.950;6.912;2024-02-14T06:02:56;1.27;;;1.10;;
18596;SDS011;9428;50.950;6.912;2024-02-14T06:05:44;1.83;;;1.08;;
18596;SDS011;9428;50.950;6.912;2024-02-14T06:08:31;1.85;;;1.08;;
18596;SDS011;9428;50.950;6.912;2024-02-14T06:11:19;3.00;;;1.52;;
18596;SDS011;9428;50.950;6.912;2024-02-14T06:14:06;1.63;;;0.95;;
18596;SDS011;9428;50.950;6.912;2024-02-14T06:16:54;1.10;;;1.00;;
18596;SDS011;9428;50.950;6.912;2024-02-14T06:19:42;1.25;;;1.15;;
18596;SDS011;9428;50.950;6.912;2024-02-14T06:22:29;1.60;;;0.93;;
18596;SDS011;9428;50.950;6.912;2024-02-14T06:25:17;2.25;;;1.30;;
18596;SDS011;9428;50.950;6.912;2024-02-14T06:28:04;1.52;;;1.10;;
18596;SDS011;9428;50.950;6.912;2024-02-14T06:30:52;1.38;;;1.10;;
18596;SDS011;9428;50.950;6.912;2024-02-14T06:33:40;1.23;;;0.95;;
18596;SDS011;9428;50.950;6.912;2024-02-14T06:36:28;3.08;;;1.30;;
18596;SDS011;9428;50.950;6.912;2024-02-14T06:39:16;1.23;;;1.13;;
18596;SDS011;9428;50.950;6.912;2024-02-14T06:42:03;1.15;;;1.05;;
18596;SDS011;9428;50.950;6.912;2024-02-14T06:44:51;1.52;;;1.30;;
18596;SDS011;9428;50.950;6.912;2024-02-14T06:47:38;1.33;;;1.00;;
18596;SDS011;9428;50.950;6.912;2024-02-14T06:50:26;3.63;;;1.20;;
18596;SDS011;9428;50.950;6.912;2024-02-14T06:53:15;1.75;;;1.02;;
18596;SDS011;9428;50.950;6.912;2024-02-14T06:56:03;1.45;;;0.98;;
18596;SDS011;9428;50.950;6.912;2024-02-14T06:58:51;2.95;;;1.27;;
18596;SDS011;9428;50.950;6.912;2024-02-14T07:01:45;2.70;;;1.17;;
18596;SDS011;9428;50.950;6.912;2024-02-14T07:04:32;0.90;;;0.80;;
18596;SDS011;9428;50.950;6.912;2024-02-14T07:07:20;1.92;;;1.10;;
18596;SDS011;9428;50.950;6.912;2024-02-14T07:10:09;1.88;;;1.17;;
18596;SDS011;9428;50.950;6.912;2024-02-14T07:13:00;2.33;;;1.05;;
18596;SDS011;9428;50.950;6.912;2024-02-14T07:15:49;1.88;;;1.13;;
18596;SDS011;9428;50.950;6.912;2024-02-14T07:18:36;1.33;;;1.05;;
18596;SDS011;9428;50.950;6.912;2024-02-14T07:21:24;2.20;;;1.13;;
18596;SDS011;9428;50.950;6.912;2024-02-14T07:24:14;1.58;;;0.95;;
18596;SDS011;9428;50.950;6.912;2024-02-14T07:27:03;2.60;;;1.42;;
18596;SDS011;9428;50.950;6.912;2024-02-14T07:29:51;2.17;;;1.30;;
18596;SDS011;9428;50.950;6.912;2024-02-14T07:32:41;1.52;;;0.90;;
18596;SDS011;9428;50.950;6.912;2024-02-14T07:35:28;2.47;;;1.10;;
18596;SDS011;9428;50.950;6.912;2024-02-14T07:38:15;2.38;;;0.98;;
18596;SDS011;9428;50.950;6.912;2024-02-14T07:41:03;6.30;;;1.25;;
18596;SDS011;9428;50.950;6.912;2024-02-14T07:43:52;1.83;;;1.10;;
18596;SDS011;9428;50.950;6.912;2024-02-14T07:46:39;1.88;;;1.35;;
18596;SDS011;9428;50.950;6.912;2024-02-14T07:49:27;1.23;;;0.90;;
18596;SDS011;9428;50.950;6.912;2024-02-14T07:52:14;1.75;;;0.80;;
18596;SDS011;9428;50.950;6.912;2024-02-14T07:55:02;2.47;;;1.00;;
18596;SDS011;9428;50.950;6.912;2024-02-14T07:57:50;1.00;;;0.90;;
18596;SDS011;9428;50.950;6.912;2024-02-14T08:00:39;3.92;;;1.10;;
18596;SDS011;9428;50.950;6.912;2024-02-14T08:03:27;2.58;;;1.23;;
18596;SDS011;9428;50.950;6.912;2024-02-14T08:06:14;1.15;;;0.90;;
18596;SDS011;9428;50.950;6.912;2024-02-14T08:09:02;1.10;;;0.90;;
18596;SDS011;9428;50.950;6.912;2024-02-14T08:11:52;3.38;;;1.10;;
18596;SDS011;9428;50.950;6.912;2024-02-14T08:14:39;4.55;;;1.00;;
18596;SDS011;9428;50.950;6.912;2024-02-14T08:17:28;3.75;;;1.17;;
18596;SDS011;9428;50.950;6.912;2024-02-14T08:20:16;3.63;;;1.10;;
18596;SDS011;9428;50.950;6.912;2024-02-14T08:23:03;1.73;;;0.80;;
18596;SDS011;9428;50.950;6.912;2024-02-14T08:25:53;1.30;;;1.08;;
18596;SDS011;9428;50.950;6.912;2024-02-14T08:28:40;3.90;;;0.90;;
18596;SDS011;9428;50.950;6.912;2024-02-14T08:31:28;5.45;;;2.30;;
18596;SDS011;9428;50.950;6.912;2024-02-14T08:34:17;5.93;;;1.27;;
18596;SDS011;9428;50.950;6.912;2024-02-14T08:37:05;1.52;;;0.88;;
18596;SDS011;9428;50.950;6.912;2024-02-14T08:39:53;4.63;;;1.13;;
18596;SDS011;9428;50.950;6.912;2024-02-14T08:42:41;2.42;;;1.00;;
18596;SDS011;9428;50.950;6.912;2024-02-14T08:45:31;2.38;;;1.10;;
18596;SDS011;9428;50.950;6.912;2024-02-14T08:48:20;1.75;;;0.95;;
18596;SDS011;9428;50.950;6.912;2024-02-14T08:51:08;3.90;;;1.10;;
18596;SDS011;9428;50.950;6.912;2024-02-14T08:53:56;1.83;;;0.90;;
18596;SDS011;9428;50.950;6.912;2024-02-14T08:56:44;1.60;;;0.90;;
18596;SDS011;9428;50.950;6.912;2024-02-14T08:59:32;2.75;;;1.00;;
18596;SDS011;9428;50.950;6.912;2024-02-14T09:02:19;3.30;;;1.80;;
18596;SDS011;9428;50.950;6.912;2024-02-14T09:05:08;3.70;;;1.10;;
18596;SDS011;9428;50.950;6.912;2024-02-14T09:07:57;4.45;;;1.20;;
18596;SDS011;9428;50.950;6.912;2024-02-14T09:10:44;3.17;;;1.10;;
18596;SDS011;9428;50.950;6.912;2024-02-14T09:13:33;2.45;;;1.40;;
18596;SDS011;9428;50.950;6.912;2024-02-14T09:16:20;3.47;;;1.10;;
18596;SDS011;9428;50.950;6.912;2024-02-14T09:19:08;1.90;;;1.23;;
18596;SDS011;9428;50.950;6.912;2024-02-14T09:21:58;2.92;;;1.00;;
18596;SDS011;9428;50.950;6.912;2024-02-14T09:24:46;3.10;;;1.83;;
18596;SDS011;9428;50.950;6.912;2024-02-14T09:27:34;3.78;;;1.80;;
18596;SDS011;9428;50.950;6.912;2024-02-14T09:30:21;2.83;;;1.92;;
18596;SDS011;9428;50.950;6.912;2024-02-14T09:33:09;3.25;;;1.30;;
18596;SDS011;9428;50.950;6.912;2024-02-14T09:36:00;2.65;;;1.30;;
18596;SDS011;9428;50.950;6.912;2024-02-14T09:38:47;4.90;;;1.23;;
18596;SDS011;9428;50.950;6.912;2024-02-14T09:41:37;8.32;;;1.13;;
18596;SDS011;9428;50.950;6.912;2024-02-14T09:44:27;7.78;;;1.52;;
18596;SDS011;9428;50.950;6.912;2024-02-14T09:47:15;3.28;;;1.10;;
18596;SDS011;9428;50.950;6.912;2024-02-14T09:50:02;2.42;;;0.93;;
18596;SDS011;9428;50.950;6.912;2024-02-14T09:52:51;7.10;;;1.25;;
18596;SDS011;9428;50.950;6.912;2024-02-14T09:55:40;2.08;;;0.90;;
18596;SDS011;9428;50.950;6.912;2024-02-14T09:58:33;3.95;;;1.55;;
18596;SDS011;9428;50.950;6.912;2024-02-14T10:01:22;1.85;;;0.93;;
18596;SDS011;9428;50.950;6.912;2024-02-14T10:04:09;2.13;;;1.02;;
18596;SDS011;9428;50.950;6.912;2024-02-14T10:06:57;1.67;;;0.80;;
18596;SDS011;9428;50.950;6.912;2024-02-14T10:09:44;1.80;;;0.75;;
18596;SDS011;9428;50.950;6.912;2024-02-14T10:12:31;0.90;;;0.80;;
18596;SDS011;9428;50.950;6.912;2024-02-14T10:15:20;1.83;;;0.98;;
18596;SDS011;9428;50.950;6.912;2024-02-14T10:18:08;1.45;;;0.80;;
18596;SDS011;9428;50.950;6.912;2024-02-14T10:20:55;2.72;;;1.00;;
18596;SDS011;9428;50.950;6.912;2024-02-14T10:23:42;3.90;;;0.80;;
18596;SDS011;9428;50.950;6.912;2024-02-14T10:26:35;1.45;;;0.90;;
18596;SDS011;9428;50.950;6.912;2024-02-14T10:29:23;1.88;;;0.98;;
18596;SDS011;9428;50.950;6.912;2024-02-14T10:32:14;4.57;;;1.17;;
18596;SDS011;9428;50.950;6.912;2024-02-14T10:35:03;2.95;;;0.93;;
18596;SDS011;9428;50.950;6.912;2024-02-14T10:37:54;3.63;;;1.27;;
18596;SDS011;9428;50.950;6.912;2024-02-14T10:40:46;4.43;;;0.90;;
18596;SDS011;9428;50.950;6.912;2024-02-14T10:43:34;5.95;;;1.10;;
18596;SDS011;9428;50.950;6.912;2024-02-14T10:46:23;2.90;;;1.05;;
18596;SDS011;9428;50.950;6.912;2024-02-14T10:49:17;2.55;;;1.13;;
18596;SDS011;9428;50.950;6.912;2024-02-14T10:52:06;3.92;;;1.10;;
18596;SDS011;9428;50.950;6.912;2024-02-14T10:54:56;2.83;;;1.02;;
18596;SDS011;9428;50.950;6.912;2024-02-14T10:57:43;3.33;;;1.10;;
18596;SDS011;9428;50.950;6.912;2024-02-14T11:00:32;4.43;;;0.80;;
18596;SDS011;9428;50.950;6.912;2024-02-14T11:03:19;3.40;;;1.45;;
18596;SDS011;9428;50.950;6.912;2024-02-14T11:06:08;1.38;;;0.90;;
18596;SDS011;9428;50.950;6.912;2024-02-14T11:09:02;3.55;;;1.15;;
18596;SDS011;9428;50.950;6.912;2024-02-14T11:11:58;4.70;;;1.30;;
18596;SDS011;9428;50.950;6.912;2024-02-14T11:14:47;2.13;;;1.10;;
18596;SDS011;9428;50.950;6.912;2024-02-14T11:17:38;3.10;;;1.48;;
18596;SDS011;9428;50.950;6.912;2024-02-14T11:20:30;3.15;;;1.23;;
18596;SDS011;9428;50.950;6.912;2024-02-14T11:23:22;2.17;;;1.00;;
18596;SDS011;9428;50.950;6.912;2024-02-14T11:26:14;2.33;;;1.48;;
18596;SDS011;9428;50.950;6.912;2024-02-14T11:29:03;4.03;;;1.00;;
18596;SDS011;9428;50.950;6.912;2024-02-14T11:31:57;1.95;;;1.00;;
18596;SDS011;9428;50.950;6.912;2024-02-14T11:34:52;1.52;;;1.00;;
18596;SDS011;9428;50.950;6.912;2024-02-14T11:37:40;2.30;;;1.05;;
18596;SDS011;9428;50.950;6.912;2024-02-14T11:40:28;2.72;;;1.10;;
18596;SDS011;9428;50.950;6.912;2024-02-14T11:43:18;2.33;;;0.88;;
18596;SDS011;9428;50.950;6.912;2024-02-14T11:46:06;1.95;;;0.90;;
18596;SDS011;9428;50.950;6.912;2024-02-14T11:48:53;3.15;;;0.90;;
18596;SDS011;9428;50.950;6.912;2024-02-14T11:51:41;4.15;;;0.68;;
18596;SDS011;9428;50.950;6.912;2024-02-14T11:54:28;0.93;;;0.70;;
18596;SDS011;9428;50.950;6.912;2024-02-14T11:57:18;1.25;;;0.85;;
18596;SDS011;9428;50.950;6.912;2024-02-14T12:00:06;3.47;;;1.98;;
18596;SDS011;9428;50.950;6.912;2024-02-14T12:02:54;1.20;;;1.10;;
18596;SDS011;9428;50.950;6.912;2024-02-14T12:05:42;2.80;;;0.80;;
18596;SDS011;9428;50.950;6.912;2024-02-14T12:08:30;5.22;;;1.90;;
18596;SDS011;9428;50.950;6.912;2024-02-14T12:11:18;0.82;;;0.60;;
18596;SDS011;9428;50.950;6.912;2024-02-14T12:14:07;0.40;;;0.40;;
18596;SDS011;9428;50.950;6.912;2024-02-14T12:16:56;2.08;;;0.80;;
18596;SDS011;9428;50.950;6.912;2024-02-14T12:19:46;1.05;;;0.90;;
18596;SDS011;9428;50.950;6.912;2024-02-14T12:22:33;1.92;;;0.80;;
18596;SDS011;9428;50.950;6.912;2024-02-14T12:25:21;1.00;;;0.82;;
18596;SDS011;9428;50.950;6.912;2024-02-14T12:28:08;1.75;;;1.00;;
18596;SDS011;9428;50.950;6.912;2024-02-14T12:31:01;1.08;;;0.80;;
18596;SDS011;9428;50.950;6.912;2024-02-14T12:33:49;1.67;;;0.98;;
18596;SDS011;9428;50.950;6.912;2024-02-14T12:36:40;0.85;;;0.75;;
18596;SDS011;9428;50.950;6.912;2024-02-14T12:39:27;4.28;;;1.30;;
18596;SDS011;9428;50.950;6.912;2024-02-14T12:42:14;1.75;;;1.30;;
18596;SDS011;9428;50.950;6.912;2024-02-14T12:45:03;3.05;;;0.90;;
18596;SDS011;9428;50.950;6.912;2024-02-14T12:47:54;3.67;;;0.95;;
18596;SDS011;9428;50.950;6.912;2024-02-14T12:50:42;1.27;;;0.70;;
18596;SDS011;9428;50.950;6.912;2024-02-14T12:53:34;1.52;;;0.80;;
18596;SDS011;9428;50.950;6.912;2024-02-14T12:56:23;2.63;;;0.93;;
18596;SDS011;9428;50.950;6.912;2024-02-14T12:59:14;1.50;;;0.80;;
18596;SDS011;9428;50.950;6.912;2024-02-14T13:02:04;1.20;;;0.90;;
18596;SDS011;9428;50.950;6.912;2024-02-14T13:04:54;2.80;;;1.15;;
18596;SDS011;9428;50.950;6.912;2024-02-14T13:07:41;1.27;;;0.90;;
18596;SDS011;9428;50.950;6.912;2024-02-14T13:10:29;1.80;;;0.80;;
18596;SDS011;9428;50.950;6.912;2024-02-14T13:13:16;1.17;;;1.05;;
18596;SDS011;9428;50.950;6.912;2024-02-14T13:16:04;0.85;;;0.73;;
18596;SDS011;9428;50.950;6.912;2024-02-14T13:18:52;0.68;;;0.68;;
18596;SDS011;9428;50.950;6.912;2024-02-14T13:21:41;2.00;;;0.80;;
18596;SDS011;9428;50.950;6.912;2024-02-14T13:24:30;1.30;;;0.65;;
18596;SDS011;9428;50.950;6.912;2024-02-14T13:27:18;1.45;;;0.70;;
18596;SDS011;9428;50.950;6.912;2024-02-14T13:30:07;0.98;;;0.85;;
18596;SDS011;9428;50.950;6.912;2024-02-14T13:32:55;1.00;;;0.75;;
18596;SDS011;9428;50.950;6.912;2024-02-14T13:35:42;1.58;;;0.70;;
18596;SDS011;9428;50.950;6.912;2024-02-14T13:38:31;1.55;;;0.90;;
18596;SDS011;9428;50.950;6.912;2024-02-14T13:41:20;1.48;;;0.73;;
18596;SDS011;9428;50.950;6.912;2024-02-14T13:44:07;3.60;;;1.05;;
18596;SDS011;9428;50.950;6.912;2024-02-14T13:46:55;0.90;;;0.73;;
18596;SDS011;9428;50.950;6.912;2024-02-14T13:49:42;2.33;;;0.77;;
18596;SDS011;9428;50.950;6.912;2024-02-14T13:52:30;1.95;;;0.88;;
18596;SDS011;9428;50.950;6.912;2024-02-14T13:55:19;0.95;;;0.75;;
18596;SDS011;9428;50.950;6.912;2024-02-14T13:58:07;1.77;;;1.20;;
18596;SDS011;9428;50.950;6.912;2024-02-14T14:00:59;1.20;;;0.75;;
18596;SDS011;9428;50.950;6.912;2024-02-14T14:03:47;1.60;;;1.02;;
18596;SDS011;9428;50.950;6.912;2024-02-14T14:06:35;2.30;;;0.93;;
18596;SDS011;9428;50.950;6.912;2024-02-14T14:09:23;1.20;;;0.70;;
18596;SDS011;9428;50.950;6.912;2024-02-14T14:12:12;2.03;;;1.20;;
18596;SDS011;9428;50.950;6.912;2024-02-14T14:15:00;2.40;;;1.00;;
18596;SDS011;9428;50.950;6.912;2024-02-14T14:17:48;1.42;;;0.80;;
18596;SDS011;9428;50.950;6.912;2024-02-14T14:20:40;1.50;;;0.98;;
18596;SDS011;9428;50.950;6.912;2024-02-14T14:23:29;2.38;;;0.82;;
18596;SDS011;9428;50.950;6.912;2024-02-14T14:26:17;4.15;;;1.13;;
18596;SDS011;9428;50.950;6.912;2024-02-14T14:29:08;2.58;;;1.10;;
18596;SDS011;9428;50.950;6.912;2024-02-14T14:31:58;2.17;;;0.98;;
18596;SDS011;9428;50.950;6.912;2024-02-14T14:34:46;2.97;;;1.10;;
18596;SDS011;9428;50.950;6.912;2024-02-14T14:37:36;5.07;;;1.35;;
18596;SDS011;9428;50.950;6.912;2024-02-14T14:40:31;1.63;;;1.20;;
18596;SDS011;9428;50.950;6.912;2024-02-14T14:43:19;2.50;;;1.30;;
18596;SDS011;9428;50.950;6.912;2024-02-14T14:46:08;1.73;;;1.30;;
18596;SDS011;9428;50.950;6.912;2024-02-14T14:48:57;2.30;;;1.73;;
18596;SDS011;9428;50.950;6.912;2024-02-14T14:51:44;2.83;;;1.95;;
18596;SDS011;9428;50.950;6.912;2024-02-14T14:54:34;2.90;;;1.88;;
18596;SDS011;9428;50.950;6.912;2024-02-14T14:57:22;3.78;;;2.33;;
18596;SDS011;9428;50.950;6.912;2024-02-14T15:00:10;4.18;;;2.13;;
18596;SDS011;9428;50.950;6.912;2024-02-14T15:02:59;5.97;;;1.90;;
18596;SDS011;9428;50.950;6.912;2024-02-14T15:05:47;2.28;;;1.70;;
18596;SDS011;9428;50.950;6.912;2024-02-14T15:08:34;4.00;;;1.88;;
18596;SDS011;9428;50.950;6.912;2024-02-14T15:11:22;1.70;;;1.20;;
18596;SDS011;9428;50.950;6.912;2024-02-14T15:14:10;3.25;;;1.50;;
18596;SDS011;9428;50.950;6.912;2024-02-14T15:16:57;1.02;;;0.90;;
18596;SDS011;9428;50.950;6.912;2024-02-14T15:19:46;2.03;;;1.40;;
18596;SDS011;9428;50.950;6.912;2024-02-14T15:22:33;1.48;;;1.15;;
18596;SDS011;9428;50.950;6.912;2024-02-14T15:25:20;1.38;;;1.00;;
18596;SDS011;9428;50.950;6.912;2024-02-14T15:28:11;0.88;;;0.80;;
18596;SDS011;9428;50.950;6.912;2024-02-14T15:31:07;2.20;;;1.05;;
18596;SDS011;9428;50.950;6.912;2024-02-14T15:34:12;2.28;;;1.58;;
18596;SDS011;9428;50.950;6.912;2024-02-14T15:37:00;4.18;;;1.33;;
18596;SDS011;9428;50.950;6.912;2024-02-14T15:39:48;1.73;;;1.40;;
18596;SDS011;9428;50.950;6.912;2024-02-14T15:42:36;2.47;;;1.50;;
18596;SDS011;9428;50.950;6.912;2024-02-14T15:45:23;1.38;;;1.23;;
18596;SDS011;9428;50.950;6.912;2024-02-14T15:48:11;3.97;;;1.60;;
18596;SDS011;9428;50.950;6.912;2024-02-14T15:51:01;1.80;;;1.35;;
18596;SDS011;9428;50.950;6.912;2024-02-14T15:53:51;1.98;;;1.60;;
18596;SDS011;9428;50.950;6.912;2024-02-14T15:56:38;2.17;;;1.55;;
18596;SDS011;9428;50.950;6.912;2024-02-14T15:59:25;2.22;;;1.38;;
18596;SDS011;9428;50.950;6.912;2024-02-14T16:02:13;2.17;;;1.80;;
18596;SDS011;9428;50.950;6.912;2024-02-14T16:05:00;2.75;;;1.88;;
18596;SDS011;9428;50.950;6.912;2024-02-14T16:07:48;2.53;;;1.92;;
18596;SDS011;9428;50.950;6.912;2024-02-14T16:10:37;4.53;;;1.98;;
18596;SDS011;9428;50.950;6.912;2024-02-14T16:13:25;4.85;;;2.60;;
18596;SDS011;9428;50.950;6.912;2024-02-14T16:16:12;2.70;;;2.03;;
18596;SDS011;9428;50.950;6.912;2024-02-14T16:18:59;3.88;;;2.45;;
18596;SDS011;9428;50.950;6.912;2024-02-14T16:21:48;6.10;;;3.00;;
18596;SDS011;9428;50.950;6.912;2024-02-14T16:24:35;5.90;;;2.58;;
18596;SDS011;9428;50.950;6.912;2024-02-14T16:27:24;5.72;;;2.58;;
18596;SDS011;9428;50.950;6.912;2024-02-14T16:30:12;5.88;;;2.55;;
18596;SDS011;9428;50.950;6.912;2024-02-14T16:33:00;3.30;;;2.38;;
18596;SDS011;9428;50.950;6.912;2024-02-14T16:35:48;3.65;;;2.20;;
18596;SDS011;9428;50.950;6.912;2024-02-14T16:38:35;3.85;;;2.40;;
18596;SDS011;9428;50.950;6.912;2024-02-14T16:41:22;2.90;;;2.20;;
18596;SDS011;9428;50.950;6.912;2024-02-14T16:44:11;4.38;;;2.08;;
18596;SDS011;9428;50.950;6.912;2024-02-14T16:46:59;5.00;;;2.63;;
18596;SDS011;9428;50.950;6.912;2024-02-14T16:49:47;2.90;;;2.10;;
18596;SDS011;9428;50.950;6.912;2024-02-14T16:52:40;3.25;;;2.20;;
18596;SDS011;9428;50.950;6.912;2024-02-14T16:55:31;4.65;;;1.90;;
18596;SDS011;9428;50.950;6.912;2024-02-14T16:58:18;6.85;;;2.42;;
18596;SDS011;9428;50.950;6.912;2024-02-14T17:01:09;3.83;;;2.20;;
18596;SDS011;9428;50.950;6.912;2024-02-14T17:03:57;3.83;;;2.15;;
18596;SDS011;9428;50.950;6.912;2024-02-14T17:06:44;3.42;;;2.13;;
18596;SDS011;9428;50.950;6.912;2024-02-14T17:09:32;5.03;;;3.25;;